createdAt,value
2019-05-23T00:00:56.574Z,53.60
2019-05-23T00:03:30.729Z,53.70
2019-05-23T00:06:04.260Z,53.70
2019-05-23T00:08:34.097Z,53.60
2019-05-23T00:11:22.015Z,53.70
2019-05-23T00:14:00.286Z,53.80
2019-05-23T00:16:30.896Z,53.70
2019-05-23T00:19:00.412Z,53.60
2019-05-23T00:21:30.640Z,53.60
2019-05-23T00:24:00.696Z,53.60
2019-05-23T00:26:31.235Z,53.60
2019-05-23T00:29:10.128Z,53.60
2019-05-23T00:31:54.051Z,53.60
2019-05-23T00:34:23.292Z,53.60
2019-05-23T00:36:54.521Z,53.60
2019-05-23T00:39:24.136Z,53.50
2019-05-23T00:41:54.769Z,53.50
2019-05-23T00:44:24.487Z,53.50
2019-05-23T00:46:53.842Z,53.40
2019-05-23T00:49:24.596Z,53.50
2019-05-23T00:51:54.434Z,53.50
2019-05-23T00:54:24.248Z,53.60
2019-05-23T00:56:54.758Z,53.70
2019-05-23T00:59:27.580Z,53.60
2019-05-23T01:01:54.584Z,53.40
2019-05-23T01:04:24.108Z,53.50
2019-05-23T01:06:53.853Z,53.40
2019-05-23T01:09:25.168Z,53.80
2019-05-23T01:11:55.321Z,53.40
2019-05-23T01:14:24.845Z,53.40
2019-05-23T01:16:54.377Z,53.40
2019-05-23T01:19:24.096Z,53.40
2019-05-23T01:21:59.108Z,53.40
2019-05-23T01:24:37.324Z,53.40
2019-05-23T01:27:07.042Z,53.40
2019-05-23T01:29:39.563Z,53.40
2019-05-23T01:32:37.307Z,53.40
2019-05-23T01:35:09.470Z,53.40
2019-05-23T01:37:41.766Z,53.40
2019-05-23T01:40:12.904Z,53.40
2019-05-23T01:42:42.122Z,53.40
2019-05-23T01:45:12.205Z,53.30
2019-05-23T01:47:42.547Z,53.20
2019-05-23T01:50:12.865Z,53.30
2019-05-23T01:52:42.500Z,53.30
2019-05-23T01:55:12.773Z,53.30
2019-05-23T01:57:41.812Z,53.30
2019-05-23T02:00:12.860Z,53.20
2019-05-23T02:02:42.756Z,53.30
2019-05-23T02:05:12.675Z,53.20
2019-05-23T02:07:41.604Z,53.20
2019-05-23T02:10:12.396Z,53.20
2019-05-23T02:12:42.429Z,53.20
2019-05-23T02:15:11.971Z,53.20
2019-05-23T02:17:41.567Z,53.30
2019-05-23T02:20:13.992Z,54.00
2019-05-23T02:22:44.879Z,53.30
2019-05-23T02:25:16.697Z,53.20
2019-05-23T02:27:47.440Z,54.00
2019-05-23T02:30:34.290Z,53.20
2019-05-23T02:32:52.642Z,53.20
2019-05-23T02:35:22.548Z,53.20
2019-05-23T02:38:22.954Z,53.20
2019-05-23T02:41:02.441Z,53.30
2019-05-23T02:43:32.731Z,53.30
2019-05-23T02:46:07.269Z,53.20
2019-05-23T02:48:42.929Z,53.30
2019-05-23T02:51:21.737Z,53.30
2019-05-23T02:53:55.811Z,53.30
2019-05-23T02:56:25.321Z,53.20
2019-05-23T02:59:29.060Z,53.20
2019-05-23T03:02:43.517Z,53.20
2019-05-23T03:05:14.442Z,53.20
2019-05-23T03:07:44.447Z,53.20
2019-05-23T03:10:15.808Z,53.20
2019-05-23T03:12:46.259Z,53.20
2019-05-23T03:15:16.930Z,53.20
2019-05-23T03:17:51.473Z,53.20
2019-05-23T03:20:21.349Z,53.20
2019-05-23T03:23:12.287Z,53.20
2019-05-23T03:26:19.781Z,53.20
2019-05-23T03:28:49.583Z,52.80
2019-05-23T03:31:31.441Z,53.20
2019-05-23T03:34:00.152Z,53.20
2019-05-23T03:36:30.261Z,53.20
2019-05-23T03:38:59.285Z,53.10
2019-05-23T03:41:30.297Z,53.10
2019-05-23T03:44:01.469Z,53.20
2019-05-23T03:46:52.511Z,53.10
2019-05-23T03:49:21.834Z,53.20
2019-05-23T03:51:51.109Z,53.10
2019-05-23T03:54:20.903Z,53.10
2019-05-23T03:56:50.135Z,53.10
2019-05-23T03:59:20.220Z,53.10
2019-05-23T04:01:51.793Z,53.10
2019-05-23T04:04:21.785Z,53.10
2019-05-23T04:06:51.400Z,53.10
2019-05-23T04:09:20.442Z,53.10
2019-05-23T04:11:49.478Z,53.10
2019-05-23T04:14:19.271Z,53.00
2019-05-23T04:16:48.887Z,53.00
2019-05-23T04:19:18.101Z,53.00
2019-05-23T04:21:47.135Z,53.00
2019-05-23T04:24:16.645Z,53.00
2019-05-23T04:26:46.086Z,53.00
2019-05-23T04:29:15.751Z,52.90
2019-05-23T04:31:45.188Z,52.90
2019-05-23T04:34:14.216Z,53.00
2019-05-23T04:36:43.264Z,53.00
2019-05-23T04:39:13.106Z,52.90
2019-05-23T04:41:42.157Z,53.00
2019-05-23T04:44:11.460Z,52.90
2019-05-23T04:46:40.602Z,52.90
2019-05-23T04:49:10.315Z,53.00
2019-05-23T04:51:39.841Z,53.00
2019-05-23T04:54:08.958Z,52.90
2019-05-23T04:56:38.010Z,53.00
2019-05-23T04:59:07.311Z,52.90
2019-05-23T05:01:37.246Z,53.00
2019-05-23T05:04:07.109Z,53.00
2019-05-23T05:06:36.355Z,52.90
2019-05-23T05:09:08.676Z,52.90
2019-05-23T05:11:37.632Z,52.90
2019-05-23T05:14:06.958Z,53.00
2019-05-23T05:16:35.908Z,52.90
2019-05-23T05:19:06.015Z,53.00
2019-05-23T05:21:35.721Z,52.90
2019-05-23T05:24:04.867Z,52.80
2019-05-23T05:26:34.225Z,52.90
2019-05-23T05:29:03.629Z,52.90
2019-05-23T05:31:32.589Z,52.90
2019-05-23T05:34:01.638Z,52.80
2019-05-23T05:36:30.950Z,52.90
2019-05-23T05:38:59.897Z,52.90
2019-05-23T05:41:28.946Z,52.80
2019-05-23T05:43:58.444Z,52.80
2019-05-23T05:46:28.161Z,52.90
2019-05-23T05:48:57.524Z,52.80
2019-05-23T05:51:28.053Z,52.80
2019-05-23T05:54:16.173Z,52.80
2019-05-23T05:56:45.078Z,52.80
2019-05-23T05:59:14.105Z,52.80
2019-05-23T06:01:43.602Z,52.80
2019-05-23T06:04:13.104Z,52.90
2019-05-23T06:06:50.136Z,53.60
2019-05-23T06:09:25.166Z,52.90
2019-05-23T06:11:54.192Z,52.90
2019-05-23T06:14:23.375Z,52.80
2019-05-23T06:16:53.973Z,52.80
2019-05-23T06:19:23.216Z,52.80
2019-05-23T06:21:52.429Z,52.90
2019-05-23T06:24:39.270Z,52.90
2019-05-23T06:26:52.386Z,53.00
2019-05-23T06:29:21.632Z,53.00
2019-05-23T06:31:51.034Z,53.00
2019-05-23T06:34:20.074Z,53.50
2019-05-23T06:36:49.104Z,53.40
2019-05-23T06:39:18.093Z,53.30
2019-05-23T06:41:47.200Z,53.40
2019-05-23T06:44:17.172Z,53.40
2019-05-23T06:46:46.472Z,53.30
2019-05-23T06:49:15.496Z,53.40
2019-05-23T06:51:44.465Z,53.30
2019-05-23T06:54:13.501Z,53.30
2019-05-23T06:56:42.648Z,53.40
2019-05-23T06:59:12.014Z,53.30
2019-05-23T07:01:41.736Z,53.40
2019-05-23T07:04:10.756Z,53.30
2019-05-23T07:06:39.797Z,53.30
2019-05-23T07:09:12.638Z,53.30
2019-05-23T07:11:41.707Z,53.90
2019-05-23T07:14:11.815Z,53.20
2019-05-23T07:16:40.964Z,53.30
2019-05-23T07:19:10.289Z,53.30
2019-05-23T07:21:40.105Z,53.30
2019-05-23T07:24:09.314Z,53.20
2019-05-23T07:26:38.707Z,53.40
2019-05-23T07:29:08.614Z,53.30
2019-05-23T07:31:38.053Z,53.40
2019-05-23T07:34:07.289Z,53.50
2019-05-23T07:36:36.644Z,53.20
2019-05-23T07:39:11.315Z,53.30
2019-05-23T07:41:39.681Z,53.30
2019-05-23T07:44:08.727Z,53.30
2019-05-23T07:46:38.508Z,53.30
2019-05-23T07:49:07.623Z,53.30
2019-05-23T07:51:36.823Z,53.30
2019-05-23T07:54:28.564Z,53.30
2019-05-23T07:56:59.276Z,53.30
2019-05-23T07:59:28.313Z,53.40
2019-05-23T08:02:11.321Z,53.40
2019-05-23T08:04:40.726Z,53.40
2019-05-23T08:07:11.292Z,53.40
2019-05-23T08:09:40.941Z,53.40
2019-05-23T08:12:09.994Z,53.30
2019-05-23T08:14:39.145Z,53.40
2019-05-23T08:17:08.664Z,53.30
2019-05-23T08:19:49.208Z,53.30
2019-05-23T08:22:08.437Z,53.40
2019-05-23T08:24:37.565Z,53.30
2019-05-23T08:27:07.285Z,53.40
2019-05-23T08:29:36.490Z,53.30
2019-05-23T08:32:06.645Z,53.30
2019-05-23T08:34:41.570Z,53.30
2019-05-23T08:37:07.794Z,53.60
2019-05-23T08:39:38.181Z,53.30
2019-05-23T08:42:08.416Z,53.30
2019-05-23T08:44:37.902Z,53.30
2019-05-23T08:47:08.277Z,53.30
2019-05-23T08:49:37.715Z,53.30
2019-05-23T08:52:06.821Z,53.30
2019-05-23T08:54:36.442Z,53.30
2019-05-23T08:57:06.893Z,53.30
2019-05-23T08:59:36.518Z,53.20
2019-05-23T09:02:07.556Z,53.20
2019-05-23T09:04:36.605Z,53.30
2019-05-23T09:07:05.564Z,53.20
2019-05-23T09:09:34.394Z,53.20
2019-05-23T09:12:04.294Z,53.20
2019-05-23T09:14:33.336Z,53.20
2019-05-23T09:17:02.467Z,53.20
2019-05-23T09:19:31.508Z,53.20
2019-05-23T09:22:00.545Z,53.10
2019-05-23T09:24:29.865Z,53.10
2019-05-23T09:26:58.850Z,53.20
2019-05-23T09:29:28.457Z,53.20
2019-05-23T09:31:57.807Z,53.10
2019-05-23T09:34:26.881Z,53.10
2019-05-23T09:36:55.941Z,53.10
2019-05-23T09:39:25.132Z,53.10
2019-05-23T09:41:54.238Z,53.10
2019-05-23T09:44:23.320Z,53.20
2019-05-23T09:46:52.473Z,53.10
2019-05-23T09:49:21.984Z,53.10
2019-05-23T09:51:54.821Z,53.10
2019-05-23T09:54:22.011Z,53.10
2019-05-23T09:56:52.114Z,53.10
2019-05-23T09:59:21.156Z,53.10
2019-05-23T10:01:50.575Z,53.10
2019-05-23T10:04:19.607Z,53.10
2019-05-23T10:06:48.657Z,53.10
2019-05-23T10:09:17.650Z,53.10
2019-05-23T10:11:46.610Z,53.10
2019-05-23T10:14:20.951Z,53.10
2019-05-23T10:16:49.976Z,53.20
2019-05-23T10:19:19.131Z,53.10
2019-05-23T10:21:48.144Z,53.10
2019-05-23T10:24:17.327Z,53.10
2019-05-23T10:26:46.429Z,53.10
2019-05-23T10:29:15.458Z,53.10
2019-05-23T10:31:44.504Z,53.10
2019-05-23T10:34:13.567Z,53.00
2019-05-23T10:36:42.605Z,53.10
2019-05-23T10:39:13.060Z,53.60
2019-05-23T10:41:42.094Z,53.10
2019-05-23T10:44:11.350Z,53.10
2019-05-23T10:46:40.356Z,53.10
2019-05-23T10:49:09.409Z,53.10
2019-05-23T10:51:38.444Z,52.70
2019-05-23T10:54:08.544Z,53.10
2019-05-23T10:56:38.478Z,53.10
2019-05-23T10:59:07.609Z,53.00
2019-05-23T11:01:36.744Z,53.00
2019-05-23T11:04:06.055Z,53.10
2019-05-23T11:06:35.555Z,53.00
2019-05-23T11:09:07.748Z,53.00
2019-05-23T11:11:37.350Z,53.00
2019-05-23T11:14:08.884Z,53.00
2019-05-23T11:16:38.439Z,53.00
2019-05-23T11:19:08.867Z,53.00
2019-05-23T11:21:38.111Z,53.00
2019-05-23T11:24:07.512Z,53.00
2019-05-23T11:26:36.831Z,53.00
2019-05-23T11:29:07.198Z,53.60
2019-05-23T11:31:36.634Z,53.40
2019-05-23T11:34:05.869Z,53.00
2019-05-23T11:36:36.742Z,53.00
2019-05-23T11:39:08.054Z,53.00
2019-05-23T11:41:37.103Z,52.90
2019-05-23T11:44:06.650Z,53.00
2019-05-23T11:46:36.474Z,52.90
2019-05-23T11:49:06.187Z,52.90
2019-05-23T11:51:36.644Z,53.00
2019-05-23T11:54:08.892Z,53.00
2019-05-23T11:56:38.545Z,52.90
2019-05-23T11:59:07.644Z,52.90
2019-05-23T12:01:45.693Z,52.90
2019-05-23T12:04:16.664Z,53.50
2019-05-23T12:06:58.827Z,52.90
2019-05-23T12:09:28.112Z,52.90
2019-05-23T12:11:57.075Z,52.90
2019-05-23T12:14:26.198Z,52.80
2019-05-23T12:16:56.932Z,52.80
2019-05-23T12:19:25.983Z,52.80
2019-05-23T12:21:55.299Z,52.80
2019-05-23T12:24:24.506Z,52.80
2019-05-23T12:26:53.640Z,52.80
2019-05-23T12:29:22.696Z,52.70
2019-05-23T12:31:51.723Z,52.60
2019-05-23T12:34:20.763Z,52.70
2019-05-23T12:37:24.109Z,52.70
2019-05-23T12:39:40.358Z,52.60
2019-05-23T12:42:09.459Z,52.60
2019-05-23T12:44:38.617Z,52.60
2019-05-23T12:47:11.448Z,52.50
2019-05-23T12:49:47.982Z,52.40
2019-05-23T12:52:16.929Z,52.50
2019-05-23T12:54:46.737Z,52.40
2019-05-23T12:57:15.942Z,52.50
2019-05-23T12:59:45.354Z,52.50
2019-05-23T13:02:19.726Z,52.50
2019-05-23T13:04:48.950Z,52.40
2019-05-23T13:07:34.540Z,52.30
2019-05-23T13:09:48.944Z,52.30
2019-05-23T13:12:18.185Z,52.40
2019-05-23T13:14:47.400Z,52.40
2019-05-23T13:17:16.434Z,52.40
2019-05-23T13:19:45.829Z,52.50
2019-05-23T13:22:15.053Z,52.50
2019-05-23T13:24:52.824Z,52.50
2019-05-23T13:27:15.265Z,52.40
2019-05-23T13:29:44.593Z,52.40
2019-05-23T13:32:13.702Z,52.40
2019-05-23T13:34:42.735Z,52.30
2019-05-23T13:37:17.082Z,52.30
2019-05-23T13:39:46.098Z,52.40
2019-05-23T13:42:15.224Z,52.40
2019-05-23T13:44:44.529Z,52.40
2019-05-23T13:47:13.534Z,52.30
2019-05-23T13:49:42.770Z,52.20
2019-05-23T13:52:11.881Z,52.10
2019-05-23T13:54:41.185Z,52.20
2019-05-23T13:57:11.828Z,52.00
2019-05-23T13:59:40.861Z,52.20
2019-05-23T14:02:10.091Z,52.10
2019-05-23T14:04:39.398Z,52.70
2019-05-23T14:07:10.658Z,52.10
2019-05-23T14:09:40.495Z,52.10
2019-05-23T14:12:25.333Z,52.00
2019-05-23T14:14:40.549Z,52.10
2019-05-23T14:17:33.465Z,52.10
2019-05-23T14:20:02.693Z,52.80
2019-05-23T14:22:33.370Z,52.00
2019-05-23T14:25:02.523Z,52.00
2019-05-23T14:28:03.728Z,52.00
2019-05-23T14:30:57.702Z,52.50
2019-05-23T14:33:55.092Z,52.00
2019-05-23T14:36:58.293Z,51.80
2019-05-23T14:39:38.243Z,51.90
2019-05-23T14:42:25.252Z,51.90
2019-05-23T14:44:54.479Z,51.90
2019-05-23T14:47:34.018Z,51.80
2019-05-23T14:50:26.071Z,51.80
2019-05-23T14:52:55.759Z,51.80
2019-05-23T14:55:25.381Z,51.70
2019-05-23T14:57:54.528Z,51.70
2019-05-23T15:00:25.430Z,51.80
2019-05-23T15:02:55.039Z,51.70
2019-05-23T15:05:25.147Z,51.70
2019-05-23T15:07:54.295Z,51.70
2019-05-23T15:10:24.282Z,51.60
2019-05-23T15:12:53.416Z,51.10
2019-05-23T15:15:22.905Z,51.60
2019-05-23T15:17:51.913Z,51.60
2019-05-23T15:20:21.234Z,51.60
2019-05-23T15:22:50.194Z,51.70
2019-05-23T15:25:19.395Z,51.60
2019-05-23T15:27:48.448Z,51.70
2019-05-23T15:30:18.388Z,51.90
2019-05-23T15:32:47.516Z,51.60
2019-05-23T15:35:17.041Z,52.20
2019-05-23T15:37:46.291Z,51.60
2019-05-23T15:40:15.616Z,51.60
2019-05-23T15:42:44.685Z,51.60
2019-05-23T15:45:13.832Z,51.60
2019-05-23T15:47:43.184Z,51.60
2019-05-23T15:50:14.845Z,51.50
2019-05-23T15:53:05.678Z,51.50
2019-05-23T15:55:53.752Z,51.60
2019-05-23T15:58:40.473Z,51.60
2019-05-23T16:01:12.829Z,51.60
2019-05-23T16:03:50.807Z,51.40
2019-05-23T16:06:21.570Z,51.50
2019-05-23T16:08:50.806Z,51.50
2019-05-23T16:11:20.195Z,51.50
2019-05-23T16:13:49.314Z,51.50
2019-05-23T16:16:18.437Z,51.50
2019-05-23T16:18:48.332Z,51.40
2019-05-23T16:21:18.782Z,51.30
2019-05-23T16:23:47.780Z,51.40
2019-05-23T16:26:17.577Z,51.30
2019-05-23T16:28:46.699Z,51.40
2019-05-23T16:31:16.021Z,51.30
2019-05-23T16:33:45.216Z,51.40
2019-05-23T16:36:14.557Z,51.30
2019-05-23T16:38:43.593Z,51.40
2019-05-23T16:41:12.658Z,51.30
2019-05-23T16:43:41.818Z,51.30
2019-05-23T16:46:10.856Z,51.30
2019-05-23T16:48:39.872Z,51.30
2019-05-23T16:51:08.908Z,51.40
2019-05-23T16:53:38.609Z,51.40
2019-05-23T16:56:15.694Z,51.40
2019-05-23T16:59:05.416Z,52.10
2019-05-23T17:01:55.506Z,51.40
2019-05-23T17:04:27.233Z,51.40
2019-05-23T17:07:04.061Z,51.50
2019-05-23T17:10:07.424Z,51.50
2019-05-23T17:12:40.820Z,51.50
2019-05-23T17:15:32.188Z,51.50
2019-05-23T17:18:14.894Z,51.50
2019-05-23T17:20:56.949Z,51.50
2019-05-23T17:23:54.265Z,51.50
2019-05-23T17:26:29.864Z,51.50
2019-05-23T17:28:59.356Z,51.40
2019-05-23T17:31:33.073Z,51.50
2019-05-23T17:34:02.566Z,51.50
2019-05-23T17:36:31.642Z,51.50
2019-05-23T17:39:00.850Z,51.50
2019-05-23T17:41:30.157Z,51.40
2019-05-23T17:43:59.134Z,51.40
2019-05-23T17:46:28.357Z,51.50
2019-05-23T17:48:57.283Z,51.40
2019-05-23T17:51:26.402Z,51.40
2019-05-23T17:53:55.332Z,51.40
2019-05-23T17:56:24.324Z,51.40
2019-05-23T17:58:53.431Z,51.40
2019-05-23T18:01:24.202Z,51.40
2019-05-23T18:03:53.260Z,51.50
2019-05-23T18:06:22.982Z,51.50
2019-05-23T18:08:52.513Z,51.50
2019-05-23T18:11:21.540Z,51.60
2019-05-23T18:13:51.173Z,51.60
2019-05-23T18:16:20.220Z,52.30
2019-05-23T18:18:49.816Z,51.70
2019-05-23T18:21:19.430Z,51.60
2019-05-23T18:23:48.931Z,51.70
2019-05-23T18:26:18.157Z,51.80
2019-05-23T18:28:47.128Z,51.80
2019-05-23T18:31:21.860Z,51.80
2019-05-23T18:33:51.293Z,51.90
2019-05-23T18:36:20.553Z,51.80
2019-05-23T18:38:49.671Z,52.50
2019-05-23T18:41:19.122Z,51.80
2019-05-23T18:43:48.239Z,51.90
2019-05-23T18:46:31.635Z,51.90
2019-05-23T18:49:01.265Z,51.90
2019-05-23T18:51:30.760Z,51.90
2019-05-23T18:54:00.007Z,52.10
2019-05-23T18:56:28.951Z,52.10
2019-05-23T18:58:57.982Z,52.10
2019-05-23T19:01:27.289Z,52.00
2019-05-23T19:03:57.093Z,52.20
2019-05-23T19:06:26.201Z,52.20
2019-05-23T19:08:55.916Z,52.20
2019-05-23T19:11:25.505Z,52.30
2019-05-23T19:13:54.756Z,52.20
2019-05-23T19:16:24.147Z,52.20
2019-05-23T19:18:53.196Z,52.30
2019-05-23T19:21:22.452Z,52.30
2019-05-23T19:23:51.586Z,52.30
2019-05-23T19:26:21.883Z,52.40
2019-05-23T19:28:50.922Z,52.40
2019-05-23T19:31:20.605Z,52.50
2019-05-23T19:33:49.676Z,52.40
2019-05-23T19:36:19.069Z,52.70
2019-05-23T19:38:48.130Z,52.70
2019-05-23T19:41:17.169Z,52.70
2019-05-23T19:43:48.179Z,52.80
2019-05-23T19:46:20.083Z,52.80
2019-05-23T19:48:51.036Z,52.80
2019-05-23T19:51:21.203Z,52.80
2019-05-23T19:53:51.432Z,52.70
2019-05-23T19:56:21.755Z,52.70
2019-05-23T19:58:51.999Z,52.70
2019-05-23T20:01:22.643Z,52.70
2019-05-23T20:03:52.830Z,52.80
2019-05-23T20:06:23.673Z,52.80
2019-05-23T20:08:54.019Z,52.80
2019-05-23T20:11:23.948Z,52.80
2019-05-23T20:13:53.886Z,52.90
2019-05-23T20:16:23.758Z,52.90
2019-05-23T20:18:53.918Z,53.00
2019-05-23T20:21:23.851Z,53.00
2019-05-23T20:23:54.457Z,52.90
2019-05-23T20:26:24.350Z,53.10
2019-05-23T20:28:54.690Z,53.00
2019-05-23T20:31:23.849Z,53.10
2019-05-23T20:33:53.194Z,53.10
2019-05-23T20:36:22.328Z,53.20
2019-05-23T20:38:51.278Z,53.20
2019-05-23T20:41:20.600Z,53.20
2019-05-23T20:43:49.570Z,53.20
2019-05-23T20:46:19.010Z,53.20
2019-05-23T20:48:47.957Z,53.20
2019-05-23T20:51:17.267Z,53.20
2019-05-23T20:53:47.326Z,53.20
2019-05-23T20:56:17.183Z,53.20
2019-05-23T20:58:47.149Z,53.20
2019-05-23T21:01:23.695Z,53.20
2019-05-23T21:03:55.028Z,53.20
2019-05-23T21:06:24.229Z,53.20
2019-05-23T21:08:53.239Z,53.20
2019-05-23T21:11:23.499Z,53.20
2019-05-23T21:13:52.924Z,53.20
2019-05-23T21:16:22.815Z,53.20
2019-05-23T21:18:52.988Z,53.20
2019-05-23T21:21:23.013Z,53.20
2019-05-23T21:23:56.660Z,53.20
2019-05-23T21:26:24.900Z,53.20
2019-05-23T21:28:54.257Z,53.20
2019-05-23T21:31:24.932Z,53.20
2019-05-23T21:33:53.888Z,53.10
2019-05-23T21:36:22.853Z,53.10
2019-05-23T21:38:51.896Z,53.00
2019-05-23T21:41:20.920Z,52.80
2019-05-23T21:43:51.621Z,52.80
2019-05-23T21:46:20.826Z,52.80
2019-05-23T21:48:49.792Z,52.70
2019-05-23T21:51:18.832Z,52.60
2019-05-23T21:53:47.873Z,52.70
2019-05-23T21:56:16.941Z,52.80
2019-05-23T21:58:45.988Z,52.70
2019-05-23T22:01:53.955Z,52.60
2019-05-23T22:04:45.068Z,52.70
2019-05-23T22:07:14.158Z,52.80
2019-05-23T22:09:43.184Z,53.00
2019-05-23T22:12:14.551Z,52.90
2019-05-23T22:14:44.252Z,52.90
2019-05-23T22:17:13.351Z,53.00
2019-05-23T22:19:42.394Z,53.00
2019-05-23T22:22:11.914Z,53.20
2019-05-23T22:24:41.049Z,53.40
2019-05-23T22:27:10.669Z,53.40
2019-05-23T22:29:39.796Z,53.60
2019-05-23T22:32:10.048Z,53.60
2019-05-23T22:34:53.155Z,53.70
2019-05-23T22:37:26.597Z,53.80
2019-05-23T22:39:55.641Z,53.60
2019-05-23T22:42:26.542Z,53.60
2019-05-23T22:44:55.500Z,53.50
2019-05-23T22:47:25.428Z,53.50
2019-05-23T22:49:54.432Z,53.60
2019-05-23T22:52:23.303Z,53.50
2019-05-23T22:54:52.316Z,54.10
2019-05-23T22:57:21.492Z,53.50
2019-05-23T22:59:50.512Z,53.50
2019-05-23T23:02:19.609Z,53.30
2019-05-23T23:04:48.631Z,53.90
2019-05-23T23:07:18.247Z,53.60
2019-05-23T23:09:47.166Z,53.60
2019-05-23T23:12:16.229Z,53.50
2019-05-23T23:14:45.165Z,53.70
2019-05-23T23:17:14.768Z,53.70
2019-05-23T23:19:43.766Z,54.10
2019-05-23T23:22:13.379Z,54.60
2019-05-23T23:24:42.284Z,54.50
2019-05-23T23:27:11.300Z,54.40
2019-05-23T23:29:40.227Z,54.30
2019-05-23T23:32:09.845Z,54.10
2019-05-23T23:34:38.872Z,54.10
2019-05-23T23:37:08.706Z,54.10
2019-05-23T23:39:37.757Z,54.10
2019-05-23T23:42:08.061Z,54.00
2019-05-23T23:44:36.209Z,54.00
2019-05-23T23:47:23.694Z,54.00
2019-05-23T23:50:10.612Z,54.00
2019-05-23T23:52:57.645Z,54.00
2019-05-23T23:55:44.885Z,54.00
2019-05-23T23:58:13.081Z,54.00
